createdAt,value
2018-01-06T00:00:41.042Z,3.70
2018-01-06T00:03:09.563Z,3.60
2018-01-06T00:05:37.846Z,3.60
2018-01-06T00:08:06.129Z,3.60
2018-01-06T00:10:34.475Z,3.60
2018-01-06T00:13:03.575Z,3.60
2018-01-06T00:15:32.627Z,3.60
2018-01-06T00:18:00.958Z,3.50
2018-01-06T00:20:29.326Z,3.60
2018-01-06T00:22:57.613Z,3.50
2018-01-06T00:25:25.942Z,3.50
2018-01-06T00:27:54.990Z,3.40
2018-01-06T00:30:23.330Z,3.30
2018-01-06T00:32:52.510Z,3.20
2018-01-06T00:35:20.790Z,3.20
2018-01-06T00:37:49.080Z,3.20
2018-01-06T00:40:17.410Z,3.20
2018-01-06T00:42:46.463Z,3.20
2018-01-06T00:45:14.742Z,3.20
2018-01-06T00:47:43.070Z,3.10
2018-01-06T00:50:11.406Z,3.10
2018-01-06T00:52:39.794Z,3.10
2018-01-06T00:55:08.820Z,3.10
2018-01-06T00:57:37.150Z,3.10
2018-01-06T01:00:05.430Z,3.10
2018-01-06T01:02:33.766Z,3.00
2018-01-06T01:05:02.058Z,3.00
2018-01-06T01:07:30.391Z,3.10
2018-01-06T01:09:58.722Z,3.00
2018-01-06T01:12:27.770Z,2.90
2018-01-06T01:14:56.102Z,2.90
2018-01-06T01:17:24.382Z,2.90
2018-01-06T01:19:52.666Z,3.00
2018-01-06T01:22:21.003Z,3.00
2018-01-06T01:24:49.350Z,3.10
2018-01-06T01:27:17.622Z,3.10
2018-01-06T01:29:45.954Z,3.20
2018-01-06T01:32:15.058Z,3.50
2018-01-06T01:34:44.111Z,3.50
2018-01-06T01:37:12.451Z,3.50
2018-01-06T01:39:40.782Z,3.50
2018-01-06T01:42:09.120Z,3.50
2018-01-06T01:44:37.399Z,3.60
2018-01-06T01:47:05.734Z,3.60
2018-01-06T01:49:34.011Z,3.70
2018-01-06T01:52:03.122Z,4.00
2018-01-06T01:54:31.402Z,4.00
2018-01-06T01:57:00.506Z,4.20
2018-01-06T01:59:29.602Z,4.20
2018-01-06T02:01:57.895Z,4.20
2018-01-06T02:04:26.238Z,4.30
2018-01-06T02:06:54.523Z,4.40
2018-01-06T02:09:22.854Z,4.50
2018-01-06T02:11:51.186Z,4.50
2018-01-06T02:14:19.468Z,4.50
2018-01-06T02:16:47.802Z,4.60
2018-01-06T02:19:16.095Z,4.60
2018-01-06T02:21:44.434Z,4.60
2018-01-06T02:24:12.724Z,4.60
2018-01-06T02:26:41.939Z,4.70
2018-01-06T02:29:10.230Z,4.60
2018-01-06T02:31:38.502Z,4.60
2018-01-06T02:34:07.618Z,4.60
2018-01-06T02:36:36.777Z,4.60
2018-01-06T02:39:05.115Z,4.60
2018-01-06T02:41:34.191Z,4.60
2018-01-06T02:44:02.514Z,4.60
2018-01-06T02:46:30.808Z,4.60
2018-01-06T02:48:59.155Z,4.60
2018-01-06T02:51:27.436Z,4.70
2018-01-06T02:53:55.771Z,4.70
2018-01-06T02:56:24.864Z,4.90
2018-01-06T02:58:53.430Z,4.90
2018-01-06T03:01:21.713Z,4.80
2018-01-06T03:03:50.000Z,4.80
2018-01-06T03:06:18.329Z,4.80
2018-01-06T03:08:47.378Z,4.90
2018-01-06T03:11:15.774Z,4.90
2018-01-06T03:13:44.110Z,4.90
2018-01-06T03:16:12.546Z,4.90
2018-01-06T03:18:40.822Z,4.90
2018-01-06T03:21:09.107Z,4.90
2018-01-06T03:23:37.455Z,4.80
2018-01-06T03:26:07.294Z,4.90
2018-01-06T03:28:36.342Z,4.80
2018-01-06T03:31:04.779Z,4.80
2018-01-06T03:33:33.109Z,4.80
2018-01-06T03:36:01.395Z,4.80
2018-01-06T03:38:29.740Z,4.70
2018-01-06T03:40:58.023Z,4.70
2018-01-06T03:43:26.362Z,4.70
2018-01-06T03:45:54.642Z,4.70
2018-01-06T03:48:23.757Z,4.70
2018-01-06T03:50:52.802Z,4.60
2018-01-06T03:53:21.098Z,4.60
2018-01-06T03:55:49.430Z,4.60
2018-01-06T03:58:18.478Z,4.60
2018-01-06T04:00:46.815Z,4.60
2018-01-06T04:03:15.095Z,4.60
2018-01-06T04:05:43.374Z,4.60
2018-01-06T04:08:11.766Z,4.60
2018-01-06T04:10:40.123Z,4.60
2018-01-06T04:13:08.411Z,4.60
2018-01-06T04:15:36.694Z,4.60
2018-01-06T04:18:05.048Z,4.60
2018-01-06T04:20:34.102Z,4.50
2018-01-06T04:23:02.474Z,4.50
2018-01-06T04:25:31.565Z,4.50
2018-01-06T04:27:59.858Z,4.50
2018-01-06T04:30:28.215Z,4.40
2018-01-06T04:32:56.505Z,4.30
2018-01-06T04:35:24.891Z,4.30
2018-01-06T04:37:53.170Z,4.30
2018-01-06T04:40:21.507Z,4.30
2018-01-06T04:42:50.553Z,4.30
2018-01-06T04:45:18.886Z,4.30
2018-01-06T04:47:47.163Z,4.20
2018-01-06T04:50:15.519Z,4.30
2018-01-06T04:52:43.842Z,4.30
2018-01-06T04:55:12.186Z,4.30
2018-01-06T04:57:40.459Z,4.30
2018-01-06T05:00:08.810Z,4.30
2018-01-06T05:02:38.658Z,4.30
2018-01-06T05:05:07.706Z,4.30
2018-01-06T05:07:36.038Z,4.20
2018-01-06T05:10:04.327Z,4.30
2018-01-06T05:12:32.675Z,4.30
2018-01-06T05:15:00.951Z,4.30
2018-01-06T05:17:29.234Z,4.20
2018-01-06T05:19:57.588Z,4.20
2018-01-06T05:22:25.870Z,4.20
2018-01-06T05:24:54.198Z,4.20
2018-01-06T05:27:22.496Z,4.20
2018-01-06T05:29:50.834Z,4.10
2018-01-06T05:32:19.194Z,4.20
2018-01-06T05:34:47.638Z,4.20
2018-01-06T05:37:15.904Z,4.10
2018-01-06T05:39:44.242Z,4.00
2018-01-06T05:42:12.574Z,4.10
2018-01-06T05:44:40.871Z,4.10
2018-01-06T05:47:09.222Z,4.00
2018-01-06T05:49:37.498Z,4.10
2018-01-06T05:52:05.783Z,4.10
2018-01-06T05:54:34.230Z,4.10
2018-01-06T05:57:02.523Z,4.10
2018-01-06T05:59:30.863Z,4.20
2018-01-06T06:01:59.147Z,4.20
2018-01-06T06:04:27.495Z,4.30
2018-01-06T06:06:55.780Z,4.30
2018-01-06T06:09:24.166Z,4.30
2018-01-06T06:11:52.453Z,4.30
2018-01-06T06:14:20.726Z,4.40
2018-01-06T06:16:49.059Z,4.40
2018-01-06T06:19:18.111Z,4.40
2018-01-06T06:21:46.446Z,4.40
2018-01-06T06:24:14.731Z,4.50
2018-01-06T06:26:43.022Z,4.50
2018-01-06T06:29:11.370Z,4.50
2018-01-06T06:31:39.658Z,4.60
2018-01-06T06:34:08.085Z,4.60
2018-01-06T06:36:36.422Z,4.60
2018-01-06T06:39:04.770Z,4.50
2018-01-06T06:41:33.238Z,4.50
2018-01-06T06:44:01.578Z,4.40
2018-01-06T06:46:30.630Z,4.40
2018-01-06T06:48:59.246Z,4.50
2018-01-06T06:51:27.538Z,4.40
2018-01-06T06:53:55.818Z,4.30
2018-01-06T06:56:24.158Z,4.40
2018-01-06T06:58:53.202Z,4.40
2018-01-06T07:01:21.555Z,4.40
2018-01-06T07:03:50.603Z,4.40
2018-01-06T07:06:19.019Z,4.40
2018-01-06T07:08:47.310Z,4.40
2018-01-06T07:11:17.090Z,4.40
2018-01-06T07:13:45.432Z,4.40
2018-01-06T07:16:13.719Z,4.40
2018-01-06T07:18:42.051Z,4.30
2018-01-06T07:21:10.390Z,4.30
2018-01-06T07:23:38.727Z,4.20
2018-01-06T07:26:07.075Z,4.20
2018-01-06T07:28:35.350Z,4.00
2018-01-06T07:31:03.682Z,4.00
2018-01-06T07:33:32.734Z,4.00
2018-01-06T07:36:01.025Z,4.00
2018-01-06T07:38:29.354Z,4.00
2018-01-06T07:40:58.417Z,4.00
2018-01-06T07:43:26.750Z,4.00
2018-01-06T07:45:55.802Z,4.20
2018-01-06T07:48:24.158Z,4.10
2018-01-06T07:50:53.240Z,4.10
2018-01-06T07:53:21.514Z,4.10
2018-01-06T07:55:49.862Z,4.10
2018-01-06T07:58:18.147Z,4.20
2018-01-06T08:00:46.435Z,4.20
2018-01-06T08:03:14.982Z,4.20
2018-01-06T08:05:43.262Z,4.20
2018-01-06T08:08:11.614Z,4.20
2018-01-06T08:10:40.055Z,4.20
2018-01-06T08:13:08.339Z,4.20
2018-01-06T08:15:37.656Z,4.10
2018-01-06T08:18:05.936Z,4.20
2018-01-06T08:20:34.210Z,4.20
2018-01-06T08:23:02.622Z,4.20
2018-01-06T08:25:30.965Z,4.20
2018-01-06T08:27:59.247Z,4.30
2018-01-06T08:30:28.362Z,4.40
2018-01-06T08:32:56.660Z,4.40
2018-01-06T08:35:24.995Z,4.50
2018-01-06T08:37:53.330Z,4.50
2018-01-06T08:40:21.624Z,4.50
2018-01-06T08:42:49.963Z,4.60
2018-01-06T08:45:18.255Z,4.60
2018-01-06T08:47:46.547Z,4.70
2018-01-06T08:50:15.140Z,4.70
2018-01-06T08:52:43.434Z,4.70
2018-01-06T08:55:11.719Z,4.70
2018-01-06T08:57:40.048Z,4.80
2018-01-06T09:00:08.326Z,4.90
2018-01-06T09:02:37.430Z,5.00
2018-01-06T09:05:06.480Z,5.00
2018-01-06T09:07:34.818Z,5.00
2018-01-06T09:10:03.942Z,5.10
2018-01-06T09:12:32.992Z,5.10
2018-01-06T09:15:01.339Z,5.10
2018-01-06T09:17:30.392Z,5.30
2018-01-06T09:19:58.752Z,5.30
2018-01-06T09:22:27.041Z,5.30
2018-01-06T09:24:55.374Z,5.40
2018-01-06T09:27:23.662Z,5.50
2018-01-06T09:29:51.994Z,5.60
2018-01-06T09:32:20.344Z,5.70
2018-01-06T09:34:48.627Z,5.70
2018-01-06T09:37:16.955Z,5.70
2018-01-06T09:39:46.075Z,5.90
2018-01-06T09:42:14.426Z,5.90
2018-01-06T09:44:42.776Z,6.00
2018-01-06T09:47:11.062Z,6.10
2018-01-06T09:49:39.347Z,6.10
2018-01-06T09:52:07.679Z,6.20
2018-01-06T09:54:36.016Z,6.30
2018-01-06T09:57:04.571Z,6.30
2018-01-06T09:59:32.858Z,6.50
2018-01-06T10:02:01.140Z,6.40
2018-01-06T10:04:29.634Z,6.50
2018-01-06T10:06:57.924Z,6.50
2018-01-06T10:09:26.199Z,6.60
2018-01-06T10:11:54.530Z,6.60
2018-01-06T10:14:23.589Z,6.90
2018-01-06T10:16:51.922Z,6.80
2018-01-06T10:19:20.967Z,6.90
2018-01-06T10:21:49.298Z,6.90
2018-01-06T10:24:17.591Z,6.90
2018-01-06T10:26:45.938Z,6.90
2018-01-06T10:29:14.366Z,7.00
2018-01-06T10:31:42.710Z,6.90
2018-01-06T10:34:11.054Z,6.90
2018-01-06T10:36:39.447Z,6.90
2018-01-06T10:39:07.784Z,7.00
2018-01-06T10:41:36.072Z,7.10
2018-01-06T10:44:04.356Z,7.30
2018-01-06T10:46:32.713Z,7.40
2018-01-06T10:49:01.903Z,7.40
2018-01-06T10:51:30.175Z,7.30
2018-01-06T10:53:58.515Z,7.50
2018-01-06T10:56:27.562Z,7.60
2018-01-06T10:58:55.998Z,7.60
2018-01-06T11:01:30.138Z,7.60
2018-01-06T11:03:59.436Z,7.60
2018-01-06T11:06:27.719Z,7.60
2018-01-06T11:08:56.014Z,7.60
2018-01-06T11:11:24.380Z,7.60
2018-01-06T11:13:52.658Z,7.70
2018-01-06T11:16:20.990Z,7.80
2018-01-06T11:18:49.326Z,7.80
2018-01-06T11:21:17.607Z,7.80
2018-01-06T11:23:45.942Z,7.90
2018-01-06T11:26:14.270Z,7.90
2018-01-06T11:28:43.327Z,7.90
2018-01-06T11:31:11.692Z,7.90
2018-01-06T11:33:39.985Z,7.90
2018-01-06T11:36:08.322Z,7.80
2018-01-06T11:38:37.387Z,7.70
2018-01-06T11:41:05.894Z,7.70
2018-01-06T11:43:34.356Z,7.80
2018-01-06T11:46:02.635Z,7.80
2018-01-06T11:48:31.082Z,7.70
2018-01-06T11:50:59.371Z,7.60
2018-01-06T11:53:27.730Z,7.60
2018-01-06T11:55:56.155Z,7.50
2018-01-06T11:58:24.546Z,7.50
2018-01-06T12:00:52.882Z,7.50
2018-01-06T12:03:21.171Z,7.50
2018-01-06T12:05:49.511Z,7.40
2018-01-06T12:08:17.852Z,7.30
2018-01-06T12:10:46.135Z,7.30
2018-01-06T12:13:15.254Z,7.40
2018-01-06T12:15:43.535Z,7.30
2018-01-06T12:18:11.827Z,7.50
2018-01-06T12:20:40.282Z,7.50
2018-01-06T12:23:08.567Z,7.60
2018-01-06T12:25:36.911Z,7.70
2018-01-06T12:28:05.194Z,7.70
2018-01-06T12:30:33.535Z,7.90
2018-01-06T12:33:01.879Z,8.00
2018-01-06T12:35:30.434Z,8.00
2018-01-06T12:37:58.733Z,8.10
2018-01-06T12:40:27.015Z,8.10
2018-01-06T12:42:55.363Z,7.90
2018-01-06T12:45:23.646Z,7.90
2018-01-06T12:47:51.986Z,7.90
2018-01-06T12:50:21.039Z,8.00
2018-01-06T12:52:50.143Z,7.90
2018-01-06T12:55:18.486Z,8.00
2018-01-06T12:57:46.818Z,7.90
2018-01-06T13:00:15.255Z,7.90
2018-01-06T13:02:43.542Z,8.00
2018-01-06T13:05:11.819Z,8.00
2018-01-06T13:07:40.154Z,8.00
2018-01-06T13:10:09.202Z,8.00
2018-01-06T13:12:37.646Z,8.00
2018-01-06T13:15:06.743Z,8.00
2018-01-06T13:17:36.038Z,8.00
2018-01-06T13:20:04.323Z,8.00
2018-01-06T13:22:32.603Z,8.10
2018-01-06T13:25:01.012Z,8.10
2018-01-06T13:27:30.809Z,8.10
2018-01-06T13:29:59.126Z,8.10
2018-01-06T13:32:27.464Z,8.10
2018-01-06T13:34:55.819Z,8.10
2018-01-06T13:37:24.151Z,8.10
2018-01-06T13:39:52.461Z,8.10
2018-01-06T13:42:21.043Z,7.90
2018-01-06T13:44:49.335Z,8.00
2018-01-06T13:47:17.651Z,7.90
2018-01-06T13:49:46.038Z,7.90
2018-01-06T13:52:14.339Z,7.90
2018-01-06T13:54:42.623Z,7.90
2018-01-06T13:57:11.023Z,7.90
2018-01-06T13:59:39.355Z,7.80
2018-01-06T14:02:07.707Z,7.80
2018-01-06T14:04:36.080Z,7.80
2018-01-06T14:07:04.434Z,7.70
2018-01-06T14:09:32.798Z,7.60
2018-01-06T14:12:01.988Z,7.50
2018-01-06T14:14:30.362Z,7.50
2018-01-06T14:16:58.722Z,7.50
2018-01-06T14:19:27.143Z,7.50
2018-01-06T14:21:55.466Z,7.50
2018-01-06T14:24:24.519Z,7.30
2018-01-06T14:26:52.799Z,7.30
2018-01-06T14:29:21.291Z,7.30
2018-01-06T14:31:49.562Z,7.20
2018-01-06T14:34:17.882Z,7.20
2018-01-06T14:36:46.254Z,7.10
2018-01-06T14:39:14.827Z,7.10
2018-01-06T14:41:43.971Z,7.10
2018-01-06T14:44:12.393Z,7.10
2018-01-06T14:46:40.985Z,7.00
2018-01-06T14:49:10.943Z,6.90
2018-01-06T14:51:39.995Z,6.80
2018-01-06T14:54:08.338Z,6.80
2018-01-06T14:56:36.922Z,6.80
2018-01-06T14:59:05.216Z,6.80
2018-01-06T15:01:33.567Z,6.80
2018-01-06T15:04:01.919Z,6.70
2018-01-06T15:06:31.067Z,6.60
2018-01-06T15:08:59.578Z,6.50
2018-01-06T15:11:27.855Z,6.50
2018-01-06T15:13:56.143Z,6.40
2018-01-06T15:16:24.563Z,6.30
2018-01-06T15:18:52.849Z,6.30
2018-01-06T15:21:21.202Z,6.20
2018-01-06T15:23:49.491Z,6.10
2018-01-06T15:26:17.835Z,6.10
2018-01-06T15:28:47.101Z,6.00
2018-01-06T15:31:15.511Z,5.90
2018-01-06T15:33:43.855Z,5.90
2018-01-06T15:36:12.142Z,5.80
2018-01-06T15:38:40.486Z,5.90
2018-01-06T15:41:08.835Z,5.90
2018-01-06T15:43:37.174Z,5.80
2018-01-06T15:46:05.530Z,5.80
2018-01-06T15:48:33.899Z,5.70
2018-01-06T15:51:02.242Z,5.70
2018-01-06T15:53:30.543Z,5.60
2018-01-06T15:55:58.831Z,5.60
2018-01-06T15:58:27.206Z,5.60
2018-01-06T16:00:55.546Z,5.50
2018-01-06T16:03:23.894Z,5.50
2018-01-06T16:05:52.171Z,5.40
2018-01-06T16:08:20.522Z,5.30
2018-01-06T16:10:48.802Z,5.20
2018-01-06T16:13:17.086Z,5.30
2018-01-06T16:15:46.358Z,5.30
2018-01-06T16:18:14.671Z,5.30
2018-01-06T16:20:42.954Z,5.30
2018-01-06T16:23:11.295Z,5.30
2018-01-06T16:25:39.570Z,5.30
2018-01-06T16:28:07.902Z,5.30
2018-01-06T16:30:36.183Z,5.30
2018-01-06T16:33:04.531Z,5.20
2018-01-06T16:35:32.974Z,5.10
2018-01-06T16:38:01.335Z,5.10
2018-01-06T16:40:29.611Z,5.10
2018-01-06T16:42:57.964Z,5.00
2018-01-06T16:45:26.242Z,5.00
2018-01-06T16:47:56.035Z,5.00
2018-01-06T16:52:47.955Z,5.00
2018-01-06T16:55:16.287Z,5.00
2018-01-06T16:57:44.570Z,5.00
2018-01-06T17:00:12.910Z,4.90
2018-01-06T17:02:42.707Z,4.80
2018-01-06T17:05:10.995Z,4.80
2018-01-06T17:07:39.342Z,4.80
2018-01-06T17:10:08.446Z,4.70
2018-01-06T17:12:37.505Z,4.60
2018-01-06T17:15:05.910Z,4.60
2018-01-06T17:17:34.190Z,4.60
2018-01-06T17:20:02.471Z,4.60
2018-01-06T17:22:30.811Z,4.70
2018-01-06T17:24:59.903Z,4.60
2018-01-06T17:27:28.280Z,4.60
2018-01-06T17:29:56.564Z,4.60
2018-01-06T17:32:24.847Z,4.60
2018-01-06T17:34:53.182Z,4.50
2018-01-06T17:37:21.465Z,4.50
2018-01-06T17:39:50.682Z,4.40
2018-01-06T17:42:18.972Z,4.40
2018-01-06T17:44:48.121Z,4.40
2018-01-06T17:47:16.399Z,4.40
2018-01-06T17:49:44.734Z,4.40
2018-01-06T17:52:13.018Z,4.50
2018-01-06T17:54:41.307Z,4.40
2018-01-06T17:57:11.146Z,4.40
2018-01-06T17:59:40.203Z,4.40
2018-01-06T18:02:08.695Z,4.40
2018-01-06T18:04:37.019Z,4.40
2018-01-06T18:07:05.313Z,4.30
2018-01-06T18:09:33.642Z,4.40
2018-01-06T18:12:01.928Z,4.40
2018-01-06T18:14:30.262Z,4.40
2018-01-06T18:16:58.551Z,4.40
2018-01-06T18:19:26.830Z,4.30
2018-01-06T18:21:55.186Z,4.40
2018-01-06T18:24:23.518Z,4.40
2018-01-06T18:26:52.012Z,4.40
2018-01-06T18:29:20.287Z,4.40
2018-01-06T18:31:48.703Z,4.30
2018-01-06T18:34:17.066Z,4.30
2018-01-06T18:36:45.378Z,4.40
2018-01-06T18:39:13.710Z,4.30
2018-01-06T18:41:42.763Z,4.40
2018-01-06T18:44:11.102Z,4.30
2018-01-06T18:46:40.146Z,4.40
2018-01-06T18:49:08.490Z,4.40
2018-01-06T18:51:36.770Z,4.30
2018-01-06T18:54:05.911Z,4.30
2018-01-06T18:56:34.190Z,4.30
2018-01-06T18:59:02.523Z,4.30
2018-01-06T19:01:30.898Z,4.20
2018-01-06T19:03:59.238Z,4.20
2018-01-06T19:06:27.576Z,4.20
2018-01-06T19:08:55.855Z,4.20
2018-01-06T19:11:24.198Z,4.10
2018-01-06T19:13:52.483Z,4.10
2018-01-06T19:16:20.967Z,4.10
2018-01-06T19:18:49.242Z,4.10
2018-01-06T19:21:17.527Z,4.00
2018-01-06T19:23:45.867Z,4.10
2018-01-06T19:26:14.923Z,4.00
2018-01-06T19:28:43.330Z,4.00
2018-01-06T19:31:11.838Z,4.00
2018-01-06T19:33:40.230Z,4.00
2018-01-06T19:36:08.609Z,4.10
2018-01-06T19:38:36.990Z,4.00
2018-01-06T19:41:05.339Z,4.00
2018-01-06T19:43:33.618Z,4.00
2018-01-06T19:46:02.730Z,4.00
2018-01-06T19:48:31.788Z,3.80
2018-01-06T19:51:00.072Z,3.80
2018-01-06T19:53:28.415Z,3.70
2018-01-06T19:55:57.463Z,3.70
2018-01-06T19:58:25.783Z,3.70
2018-01-06T20:00:54.375Z,3.70
2018-01-06T20:03:22.658Z,3.70
2018-01-06T20:05:50.940Z,3.60
2018-01-06T20:08:19.290Z,3.70
2018-01-06T20:10:47.582Z,3.70
2018-01-06T20:13:15.867Z,3.70
2018-01-06T20:15:44.222Z,3.70
2018-01-06T20:18:12.510Z,3.70
2018-01-06T20:20:40.890Z,3.70
2018-01-06T20:23:09.226Z,3.70
2018-01-06T20:25:37.516Z,3.70
2018-01-06T20:28:05.879Z,3.70
2018-01-06T20:33:10.462Z,3.70
2018-01-06T20:35:39.579Z,3.70
2018-01-06T20:38:08.631Z,3.60
2018-01-06T20:40:36.982Z,3.50
2018-01-06T20:43:05.262Z,3.60
2018-01-06T20:45:33.615Z,3.60
2018-01-06T20:48:01.978Z,3.60
2018-01-06T20:50:30.275Z,3.60
2018-01-06T20:52:58.562Z,3.60
2018-01-06T20:55:26.903Z,3.60
2018-01-06T20:57:55.971Z,3.70
2018-01-06T21:00:24.307Z,3.70
2018-01-06T21:02:53.351Z,3.70
2018-01-06T21:05:21.855Z,3.70
2018-01-06T21:07:50.154Z,3.70
2018-01-06T21:10:18.438Z,3.70
2018-01-06T21:12:46.794Z,3.60
2018-01-06T21:15:15.076Z,3.60
2018-01-06T21:17:43.359Z,3.50
2018-01-06T21:20:11.694Z,3.50
2018-01-06T21:22:40.019Z,3.40
2018-01-06T21:25:09.354Z,3.30
2018-01-06T21:27:37.828Z,3.30
2018-01-06T21:30:06.870Z,3.50
2018-01-06T21:32:35.230Z,3.50
2018-01-06T21:35:04.279Z,3.40
2018-01-06T21:37:32.710Z,3.40
2018-01-06T21:40:01.087Z,3.40
2018-01-06T21:42:29.364Z,3.40
2018-01-06T21:44:57.694Z,3.30
2018-01-06T21:47:26.877Z,3.20
2018-01-06T21:49:55.195Z,3.20
2018-01-06T21:52:24.297Z,3.20
2018-01-06T21:54:53.447Z,3.40
2018-01-06T21:57:21.754Z,3.40
2018-01-06T21:59:50.038Z,3.40
2018-01-06T22:02:18.377Z,3.40
2018-01-06T22:04:47.483Z,3.60
2018-01-06T22:07:16.594Z,3.70
2018-01-06T22:09:45.651Z,3.80
2018-01-06T22:12:13.986Z,3.80
2018-01-06T22:14:43.096Z,3.90
2018-01-06T22:17:11.386Z,3.90
2018-01-06T22:22:38.514Z,4.00
2018-01-06T22:25:06.830Z,4.10
2018-01-06T22:27:35.155Z,4.20
2018-01-06T22:30:03.458Z,4.20
2018-01-06T22:32:32.543Z,4.30
2018-01-06T22:35:00.831Z,4.30
2018-01-06T22:37:29.114Z,4.40
2018-01-06T22:39:57.435Z,4.50
2018-01-06T22:42:26.619Z,4.30
2018-01-06T22:44:54.943Z,4.30
2018-01-06T22:47:23.235Z,4.40
2018-01-06T22:49:51.570Z,4.30
2018-01-06T22:52:19.854Z,4.30
2018-01-06T22:54:48.138Z,4.40
2018-01-06T22:57:16.546Z,4.30
2018-01-06T22:59:44.866Z,4.30
2018-01-06T23:02:13.915Z,4.30
2018-01-06T23:04:42.201Z,4.20
2018-01-06T23:07:10.510Z,4.20
2018-01-06T23:09:38.794Z,4.20
2018-01-06T23:12:07.118Z,4.30
2018-01-06T23:14:35.402Z,4.30
2018-01-06T23:17:03.687Z,4.40
2018-01-06T23:19:32.000Z,4.30
2018-01-06T23:22:01.047Z,4.40
2018-01-06T23:24:29.371Z,4.30
2018-01-06T23:26:58.440Z,4.30
2018-01-06T23:29:26.763Z,4.30
2018-01-06T23:31:55.150Z,4.20
2018-01-06T23:34:23.434Z,4.30
2018-01-06T23:36:51.746Z,4.30
2018-01-06T23:39:20.031Z,4.40
2018-01-06T23:41:48.415Z,4.30
2018-01-06T23:44:16.694Z,4.20
2018-01-06T23:46:45.119Z,4.20
2018-01-06T23:49:14.163Z,4.20
2018-01-06T23:51:42.439Z,4.10
2018-01-06T23:54:10.755Z,4.20
2018-01-06T23:56:39.034Z,4.20
2018-01-06T23:59:07.350Z,4.20
